sensor_id;sensor_type;location;lat;lon;timestamp;temperature;humidity
67555;HTU21D;54385;53.516;49.456;2023-03-01T00:00:02;-3.55;80.74
67555;HTU21D;54385;53.516;49.456;2023-03-01T00:02:29;-3.56;81.25
67555;HTU21D;54385;53.516;49.456;2023-03-01T00:04:56;-3.57;81.88
67555;HTU21D;54385;53.516;49.456;2023-03-01T00:07:23;-3.55;81.21
67555;HTU21D;54385;53.516;49.456;2023-03-01T00:09:49;-3.53;81.39
67555;HTU21D;54385;53.516;49.456;2023-03-01T00:12:16;-3.52;81.47
67555;HTU21D;54385;53.516;49.456;2023-03-01T00:14:44;-3.52;81.68
67555;HTU21D;54385;53.516;49.456;2023-03-01T00:17:11;-3.56;82.47
67555;HTU21D;54385;53.516;49.456;2023-03-01T00:19:37;-3.52;82.95
67555;HTU21D;54385;53.516;49.456;2023-03-01T00:22:04;-3.57;81.77
67555;HTU21D;54385;53.516;49.456;2023-03-01T00:24:31;-3.56;82.13
67555;HTU21D;54385;53.516;49.456;2023-03-01T00:26:58;-3.52;82.76
67555;HTU21D;54385;53.516;49.456;2023-03-01T00:29:24;-3.55;82.49
67555;HTU21D;54385;53.516;49.456;2023-03-01T00:31:51;-3.51;82.46
67555;HTU21D;54385;53.516;49.456;2023-03-01T00:34:18;-3.48;82.63
67555;HTU21D;54385;53.516;49.456;2023-03-01T00:36:45;-3.49;83.14
67555;HTU21D;54385;53.516;49.456;2023-03-01T00:39:14;-3.48;82.32
67555;HTU21D;54385;53.516;49.456;2023-03-01T00:41:42;-3.52;82.83
67555;HTU21D;54385;53.516;49.456;2023-03-01T00:44:09;-3.42;83.26
67555;HTU21D;54385;53.516;49.456;2023-03-01T00:46:37;-3.36;82.71
67555;HTU21D;54385;53.516;49.456;2023-03-01T00:49:03;-3.38;82.36
67555;HTU21D;54385;53.516;49.456;2023-03-01T00:51:31;-3.37;81.92
67555;HTU21D;54385;53.516;49.456;2023-03-01T00:53:58;-3.35;83.01
67555;HTU21D;54385;53.516;49.456;2023-03-01T00:56:26;-3.31;83.14
67555;HTU21D;54385;53.516;49.456;2023-03-01T00:58:53;-3.32;82.75
67555;HTU21D;54385;53.516;49.456;2023-03-01T01:01:22;-3.37;83.01
67555;HTU21D;54385;53.516;49.456;2023-03-01T01:03:52;-3.30;83.25
67555;HTU21D;54385;53.516;49.456;2023-03-01T01:06:26;-3.32;82.26
67555;HTU21D;54385;53.516;49.456;2023-03-01T01:08:54;-3.40;81.75
67555;HTU21D;54385;53.516;49.456;2023-03-01T01:11:22;-3.35;82.34
67555;HTU21D;54385;53.516;49.456;2023-03-01T01:13:49;-3.38;82.52
67555;HTU21D;54385;53.516;49.456;2023-03-01T01:16:18;-3.39;82.17
67555;HTU21D;54385;53.516;49.456;2023-03-01T01:18:45;-3.39;82.81
67555;HTU21D;54385;53.516;49.456;2023-03-01T01:21:15;-3.33;82.81
67555;HTU21D;54385;53.516;49.456;2023-03-01T01:23:44;-3.26;83.00
67555;HTU21D;54385;53.516;49.456;2023-03-01T01:26:14;-3.26;82.89
67555;HTU21D;54385;53.516;49.456;2023-03-01T01:28:41;-3.19;82.94
67555;HTU21D;54385;53.516;49.456;2023-03-01T01:31:07;-3.23;82.72
67555;HTU21D;54385;53.516;49.456;2023-03-01T01:33:34;-3.19;82.64
67555;HTU21D;54385;53.516;49.456;2023-03-01T01:36:01;-3.18;82.71
67555;HTU21D;54385;53.516;49.456;2023-03-01T01:38:28;-3.16;82.01
67555;HTU21D;54385;53.516;49.456;2023-03-01T01:40:54;-3.11;82.37
67555;HTU21D;54385;53.516;49.456;2023-03-01T01:43:34;-3.11;82.22
67555;HTU21D;54385;53.516;49.456;2023-03-01T01:46:04;-3.10;82.81
67555;HTU21D;54385;53.516;49.456;2023-03-01T01:48:40;-3.15;81.72
67555;HTU21D;54385;53.516;49.456;2023-03-01T01:51:25;-3.24;82.52
67555;HTU21D;54385;53.516;49.456;2023-03-01T01:53:56;-3.25;82.59
67555;HTU21D;54385;53.516;49.456;2023-03-01T01:56:26;-3.24;83.10
67555;HTU21D;54385;53.516;49.456;2023-03-01T01:58:54;-3.23;82.45
67555;HTU21D;54385;53.516;49.456;2023-03-01T02:01:21;-3.20;82.62
67555;HTU21D;54385;53.516;49.456;2023-03-01T02:03:48;-3.18;82.37
67555;HTU21D;54385;53.516;49.456;2023-03-01T02:08:59;-3.15;82.82
67555;HTU21D;54385;53.516;49.456;2023-03-01T02:11:27;-3.11;83.00
67555;HTU21D;54385;53.516;49.456;2023-03-01T02:13:55;-3.08;82.71
67555;HTU21D;54385;53.516;49.456;2023-03-01T02:16:22;-3.12;82.34
67555;HTU21D;54385;53.516;49.456;2023-03-01T02:18:50;-3.16;82.53
67555;HTU21D;54385;53.516;49.456;2023-03-01T02:21:23;-3.12;82.90
67555;HTU21D;54385;53.516;49.456;2023-03-01T02:23:54;-3.09;82.23
67555;HTU21D;54385;53.516;49.456;2023-03-01T02:26:35;-3.16;82.49
67555;HTU21D;54385;53.516;49.456;2023-03-01T02:29:07;-3.07;83.04
67555;HTU21D;54385;53.516;49.456;2023-03-01T02:31:33;-3.08;82.69
67555;HTU21D;54385;53.516;49.456;2023-03-01T02:34:13;-3.05;82.59
67555;HTU21D;54385;53.516;49.456;2023-03-01T02:36:46;-2.97;83.20
67555;HTU21D;54385;53.516;49.456;2023-03-01T02:39:36;-3.04;81.72
67555;HTU21D;54385;53.516;49.456;2023-03-01T02:42:12;-3.06;81.60
67555;HTU21D;54385;53.516;49.456;2023-03-01T02:44:39;-3.01;81.70
67555;HTU21D;54385;53.516;49.456;2023-03-01T02:47:06;-2.96;81.68
67555;HTU21D;54385;53.516;49.456;2023-03-01T02:49:42;-2.91;82.11
67555;HTU21D;54385;53.516;49.456;2023-03-01T02:52:34;-2.93;81.55
67555;HTU21D;54385;53.516;49.456;2023-03-01T02:55:10;-2.98;81.91
67555;HTU21D;54385;53.516;49.456;2023-03-01T02:57:39;-3.02;82.22
67555;HTU21D;54385;53.516;49.456;2023-03-01T03:00:15;-3.00;82.24
67555;HTU21D;54385;53.516;49.456;2023-03-01T03:02:50;-3.04;81.94
67555;HTU21D;54385;53.516;49.456;2023-03-01T03:05:20;-3.05;82.15
67555;HTU21D;54385;53.516;49.456;2023-03-01T03:07:48;-3.03;82.64
67555;HTU21D;54385;53.516;49.456;2023-03-01T03:10:28;-3.00;82.84
67555;HTU21D;54385;53.516;49.456;2023-03-01T03:12:56;-2.96;82.72
67555;HTU21D;54385;53.516;49.456;2023-03-01T03:15:23;-2.94;82.58
67555;HTU21D;54385;53.516;49.456;2023-03-01T03:17:52;-2.92;82.26
67555;HTU21D;54385;53.516;49.456;2023-03-01T03:20:20;-2.95;83.28
67555;HTU21D;54385;53.516;49.456;2023-03-01T03:22:50;-2.93;82.81
67555;HTU21D;54385;53.516;49.456;2023-03-01T03:25:25;-2.87;83.25
67555;HTU21D;54385;53.516;49.456;2023-03-01T03:27:53;-2.94;82.26
67555;HTU21D;54385;53.516;49.456;2023-03-01T03:30:30;-2.95;82.78
67555;HTU21D;54385;53.516;49.456;2023-03-01T03:32:59;-2.93;82.02
67555;HTU21D;54385;53.516;49.456;2023-03-01T03:35:32;-2.89;82.36
67555;HTU21D;54385;53.516;49.456;2023-03-01T03:38:01;-2.87;81.94
67555;HTU21D;54385;53.516;49.456;2023-03-01T03:40:44;-2.82;82.20
67555;HTU21D;54385;53.516;49.456;2023-03-01T03:43:19;-2.78;82.76
67555;HTU21D;54385;53.516;49.456;2023-03-01T03:45:52;-2.83;82.85
67555;HTU21D;54385;53.516;49.456;2023-03-01T03:48:20;-2.86;82.52
67555;HTU21D;54385;53.516;49.456;2023-03-01T03:50:49;-2.83;83.23
67555;HTU21D;54385;53.516;49.456;2023-03-01T03:53:17;-2.76;83.40
67555;HTU21D;54385;53.516;49.456;2023-03-01T03:55:44;-2.67;82.96
67555;HTU21D;54385;53.516;49.456;2023-03-01T03:58:11;-2.60;83.16
67555;HTU21D;54385;53.516;49.456;2023-03-01T04:00:41;-2.67;82.61
67555;HTU21D;54385;53.516;49.456;2023-03-01T04:03:14;-2.74;82.25
67555;HTU21D;54385;53.516;49.456;2023-03-01T04:05:42;-2.67;83.67
67555;HTU21D;54385;53.516;49.456;2023-03-01T04:08:11;-2.63;81.96
67555;HTU21D;54385;53.516;49.456;2023-03-01T04:10:43;-2.63;81.23
67555;HTU21D;54385;53.516;49.456;2023-03-01T04:13:13;-2.56;82.26
67555;HTU21D;54385;53.516;49.456;2023-03-01T04:15:45;-2.56;82.12
67555;HTU21D;54385;53.516;49.456;2023-03-01T04:18:16;-2.52;81.68
67555;HTU21D;54385;53.516;49.456;2023-03-01T04:20:44;-2.45;81.78
67555;HTU21D;54385;53.516;49.456;2023-03-01T04:23:14;-2.39;81.22
67555;HTU21D;54385;53.516;49.456;2023-03-01T04:25:57;-2.39;80.36
67555;HTU21D;54385;53.516;49.456;2023-03-01T04:28:53;-2.42;80.62
67555;HTU21D;54385;53.516;49.456;2023-03-01T04:31:27;-2.41;79.70
67555;HTU21D;54385;53.516;49.456;2023-03-01T04:34:01;-2.39;80.36
67555;HTU21D;54385;53.516;49.456;2023-03-01T04:36:29;-2.33;80.56
67555;HTU21D;54385;53.516;49.456;2023-03-01T04:39:03;-2.24;79.21
67555;HTU21D;54385;53.516;49.456;2023-03-01T04:41:45;-2.13;79.29
67555;HTU21D;54385;53.516;49.456;2023-03-01T04:44:15;-2.16;79.33
67555;HTU21D;54385;53.516;49.456;2023-03-01T04:47:02;-2.14;77.96
67555;HTU21D;54385;53.516;49.456;2023-03-01T04:49:30;-2.04;79.62
67555;HTU21D;54385;53.516;49.456;2023-03-01T04:51:59;-1.86;79.35
67555;HTU21D;54385;53.516;49.456;2023-03-01T04:54:30;-1.93;77.31
67555;HTU21D;54385;53.516;49.456;2023-03-01T04:57:30;-1.91;78.35
67555;HTU21D;54385;53.516;49.456;2023-03-01T05:00:21;-1.78;77.40
67555;HTU21D;54385;53.516;49.456;2023-03-01T05:03:17;-1.80;77.44
67555;HTU21D;54385;53.516;49.456;2023-03-01T05:05:46;-1.79;76.82
67555;HTU21D;54385;53.516;49.456;2023-03-01T05:08:16;-1.64;78.08
67555;HTU21D;54385;53.516;49.456;2023-03-01T05:11:07;-1.65;77.11
67555;HTU21D;54385;53.516;49.456;2023-03-01T05:13:37;-1.56;77.13
67555;HTU21D;54385;53.516;49.456;2023-03-01T05:16:09;-1.48;76.69
67555;HTU21D;54385;53.516;49.456;2023-03-01T05:18:43;-1.50;74.95
67555;HTU21D;54385;53.516;49.456;2023-03-01T05:21:16;-1.40;75.21
67555;HTU21D;54385;53.516;49.456;2023-03-01T05:23:54;-1.34;75.28
67555;HTU21D;54385;53.516;49.456;2023-03-01T05:26:22;-1.31;74.87
67555;HTU21D;54385;53.516;49.456;2023-03-01T05:28:53;-1.13;75.59
67555;HTU21D;54385;53.516;49.456;2023-03-01T05:31:24;-1.15;73.57
67555;HTU21D;54385;53.516;49.456;2023-03-01T05:33:53;-0.99;75.45
67555;HTU21D;54385;53.516;49.456;2023-03-01T05:36:23;-0.97;74.28
67555;HTU21D;54385;53.516;49.456;2023-03-01T05:38:49;-0.94;74.15
67555;HTU21D;54385;53.516;49.456;2023-03-01T05:41:16;-0.85;73.66
67555;HTU21D;54385;53.516;49.456;2023-03-01T05:43:43;-0.77;74.11
67555;HTU21D;54385;53.516;49.456;2023-03-01T05:46:10;-0.75;73.52
67555;HTU21D;54385;53.516;49.456;2023-03-01T05:48:42;-0.66;73.14
67555;HTU21D;54385;53.516;49.456;2023-03-01T05:51:17;-0.68;71.81
67555;HTU21D;54385;53.516;49.456;2023-03-01T05:53:47;-0.76;73.34
67555;HTU21D;54385;53.516;49.456;2023-03-01T05:56:14;-0.77;72.32
67555;HTU21D;54385;53.516;49.456;2023-03-01T05:59:06;-0.59;73.03
67555;HTU21D;54385;53.516;49.456;2023-03-01T06:01:41;-0.44;71.77
67555;HTU21D;54385;53.516;49.456;2023-03-01T06:04:10;-0.28;71.51
67555;HTU21D;54385;53.516;49.456;2023-03-01T06:06:37;-0.20;70.68
67555;HTU21D;54385;53.516;49.456;2023-03-01T06:09:07;-0.06;71.59
67555;HTU21D;54385;53.516;49.456;2023-03-01T06:11:45;-0.05;70.11
67555;HTU21D;54385;53.516;49.456;2023-03-01T06:14:15;-0.14;69.93
67555;HTU21D;54385;53.516;49.456;2023-03-01T06:16:42;-0.20;69.31
67555;HTU21D;54385;53.516;49.456;2023-03-01T06:19:09;-0.17;70.45
67555;HTU21D;54385;53.516;49.456;2023-03-01T06:21:38;-0.22;68.97
67555;HTU21D;54385;53.516;49.456;2023-03-01T06:24:06;-0.26;71.03
67555;HTU21D;54385;53.516;49.456;2023-03-01T06:26:36;-0.37;69.18
67555;HTU21D;54385;53.516;49.456;2023-03-01T06:29:03;-0.19;70.02
67555;HTU21D;54385;53.516;49.456;2023-03-01T06:31:30;-0.20;68.09
67555;HTU21D;54385;53.516;49.456;2023-03-01T06:33:56;-0.50;68.84
67555;HTU21D;54385;53.516;49.456;2023-03-01T06:36:25;-0.32;69.81
67555;HTU21D;54385;53.516;49.456;2023-03-01T06:39:05;-0.20;67.88
67555;HTU21D;54385;53.516;49.456;2023-03-01T06:42:55;-0.50;68.37
67555;HTU21D;54385;53.516;49.456;2023-03-01T06:46:05;-0.74;67.56
67555;HTU21D;54385;53.516;49.456;2023-03-01T06:48:35;-0.90;68.91
67555;HTU21D;54385;53.516;49.456;2023-03-01T06:51:16;-1.05;69.38
67555;HTU21D;54385;53.516;49.456;2023-03-01T06:53:46;-1.17;70.97
67555;HTU21D;54385;53.516;49.456;2023-03-01T06:56:15;-1.55;71.48
67555;HTU21D;54385;53.516;49.456;2023-03-01T06:58:42;-1.71;72.22
67555;HTU21D;54385;53.516;49.456;2023-03-01T07:01:09;-1.94;71.16
67555;HTU21D;54385;53.516;49.456;2023-03-01T07:03:35;-1.94;71.84
67555;HTU21D;54385;53.516;49.456;2023-03-01T07:06:02;-2.06;72.08
67555;HTU21D;54385;53.516;49.456;2023-03-01T07:08:32;-1.97;71.86
67555;HTU21D;54385;53.516;49.456;2023-03-01T07:11:02;-1.78;69.06
67555;HTU21D;54385;53.516;49.456;2023-03-01T07:13:34;-1.64;68.78
67555;HTU21D;54385;53.516;49.456;2023-03-01T07:16:08;-1.54;66.10
67555;HTU21D;54385;53.516;49.456;2023-03-01T07:18:35;-1.64;66.36
67555;HTU21D;54385;53.516;49.456;2023-03-01T07:21:05;-1.60;66.52
67555;HTU21D;54385;53.516;49.456;2023-03-01T07:23:32;-1.41;67.25
67555;HTU21D;54385;53.516;49.456;2023-03-01T07:25:58;-1.11;66.63
67555;HTU21D;54385;53.516;49.456;2023-03-01T07:28:25;-0.85;67.65
67555;HTU21D;54385;53.516;49.456;2023-03-01T07:30:54;-0.95;65.53
67555;HTU21D;54385;53.516;49.456;2023-03-01T07:33:29;-0.83;67.30
67555;HTU21D;54385;53.516;49.456;2023-03-01T07:35:57;-0.64;66.04
67555;HTU21D;54385;53.516;49.456;2023-03-01T07:38:24;-0.71;64.23
67555;HTU21D;54385;53.516;49.456;2023-03-01T07:40:50;-0.79;64.29
67555;HTU21D;54385;53.516;49.456;2023-03-01T07:43:17;-0.79;66.86
67555;HTU21D;54385;53.516;49.456;2023-03-01T07:45:44;-0.64;64.56
67555;HTU21D;54385;53.516;49.456;2023-03-01T07:48:10;-0.53;64.82
67555;HTU21D;54385;53.516;49.456;2023-03-01T07:50:37;-0.55;64.01
67555;HTU21D;54385;53.516;49.456;2023-03-01T07:53:06;-0.62;63.31
67555;HTU21D;54385;53.516;49.456;2023-03-01T07:55:33;-0.64;63.48
67555;HTU21D;54385;53.516;49.456;2023-03-01T07:57:59;-0.88;62.34
67555;HTU21D;54385;53.516;49.456;2023-03-01T08:00:29;-1.01;61.21
67555;HTU21D;54385;53.516;49.456;2023-03-01T08:02:59;-1.12;60.44
67555;HTU21D;54385;53.516;49.456;2023-03-01T08:05:30;-1.14;61.45
67555;HTU21D;54385;53.516;49.456;2023-03-01T08:07:58;-1.02;61.57
67555;HTU21D;54385;53.516;49.456;2023-03-01T08:10:48;-1.01;60.60
67555;HTU21D;54385;53.516;49.456;2023-03-01T08:13:30;-0.76;61.80
67555;HTU21D;54385;53.516;49.456;2023-03-01T08:16:12;-1.00;59.70
67555;HTU21D;54385;53.516;49.456;2023-03-01T08:18:53;-1.23;60.77
67555;HTU21D;54385;53.516;49.456;2023-03-01T08:21:23;-1.49;60.37
67555;HTU21D;54385;53.516;49.456;2023-03-01T08:23:50;-1.46;61.44
67555;HTU21D;54385;53.516;49.456;2023-03-01T08:26:47;-1.43;60.90
67555;HTU21D;54385;53.516;49.456;2023-03-01T08:29:55;-1.58;60.86
67555;HTU21D;54385;53.516;49.456;2023-03-01T08:32:38;-1.69;60.25
67555;HTU21D;54385;53.516;49.456;2023-03-01T08:35:29;-1.63;61.30
67555;HTU21D;54385;53.516;49.456;2023-03-01T08:38:34;-1.39;60.85
67555;HTU21D;54385;53.516;49.456;2023-03-01T08:44:45;-0.97;59.55
67555;HTU21D;54385;53.516;49.456;2023-03-01T08:47:35;-0.97;59.98
67555;HTU21D;54385;53.516;49.456;2023-03-01T08:50:38;-0.75;61.83
67555;HTU21D;54385;53.516;49.456;2023-03-01T08:53:41;-0.55;60.29
67555;HTU21D;54385;53.516;49.456;2023-03-01T08:56:10;-0.42;58.64
67555;HTU21D;54385;53.516;49.456;2023-03-01T08:58:48;-0.50;58.28
67555;HTU21D;54385;53.516;49.456;2023-03-01T09:01:18;-0.74;59.28
67555;HTU21D;54385;53.516;49.456;2023-03-01T09:03:48;-1.15;59.12
67555;HTU21D;54385;53.516;49.456;2023-03-01T09:06:15;-1.47;60.54
67555;HTU21D;54385;53.516;49.456;2023-03-01T09:08:44;-1.36;61.71
67555;HTU21D;54385;53.516;49.456;2023-03-01T09:11:20;-1.49;59.72
67555;HTU21D;54385;53.516;49.456;2023-03-01T09:13:49;-1.67;60.93
67555;HTU21D;54385;53.516;49.456;2023-03-01T09:16:17;-1.76;61.21
67555;HTU21D;54385;53.516;49.456;2023-03-01T09:18:48;-1.82;61.52
67555;HTU21D;54385;53.516;49.456;2023-03-01T09:21:16;-1.63;62.05
67555;HTU21D;54385;53.516;49.456;2023-03-01T09:23:45;-1.54;62.05
67555;HTU21D;54385;53.516;49.456;2023-03-01T09:26:14;-1.44;60.69
67555;HTU21D;54385;53.516;49.456;2023-03-01T09:28:43;-1.26;61.38
67555;HTU21D;54385;53.516;49.456;2023-03-01T09:31:10;-1.17;60.59
67555;HTU21D;54385;53.516;49.456;2023-03-01T09:33:39;-1.19;61.19
67555;HTU21D;54385;53.516;49.456;2023-03-01T09:36:22;-1.49;61.41
67555;HTU21D;54385;53.516;49.456;2023-03-01T09:38:52;-1.70;63.52
67555;HTU21D;54385;53.516;49.456;2023-03-01T09:41:54;-2.05;62.02
67555;HTU21D;54385;53.516;49.456;2023-03-01T09:47:33;-1.67;59.73
67555;HTU21D;54385;53.516;49.456;2023-03-01T09:52:48;-1.36;59.18
67555;HTU21D;54385;53.516;49.456;2023-03-01T09:55:55;-1.10;57.98
67555;HTU21D;54385;53.516;49.456;2023-03-01T10:01:14;-1.40;55.90
67555;HTU21D;54385;53.516;49.456;2023-03-01T10:06:54;-1.46;55.33
67555;HTU21D;54385;53.516;49.456;2023-03-01T10:09:35;-1.45;55.00
67555;HTU21D;54385;53.516;49.456;2023-03-01T10:12:08;-1.65;55.10
67555;HTU21D;54385;53.516;49.456;2023-03-01T10:18:21;-1.71;56.27
67555;HTU21D;54385;53.516;49.456;2023-03-01T10:21:41;-1.75;58.04
67555;HTU21D;54385;53.516;49.456;2023-03-01T10:24:17;-1.53;58.54
67555;HTU21D;54385;53.516;49.456;2023-03-01T10:26:58;-1.55;60.01
67555;HTU21D;54385;53.516;49.456;2023-03-01T10:29:44;-1.32;61.87
67555;HTU21D;54385;53.516;49.456;2023-03-01T10:32:14;-1.47;60.48
67555;HTU21D;54385;53.516;49.456;2023-03-01T10:34:41;-1.67;62.02
67555;HTU21D;54385;53.516;49.456;2023-03-01T10:37:19;-1.56;63.26
67555;HTU21D;54385;53.516;49.456;2023-03-01T10:40:08;-1.42;60.92
67555;HTU21D;54385;53.516;49.456;2023-03-01T10:42:57;-1.30;61.02
67555;HTU21D;54385;53.516;49.456;2023-03-01T10:45:32;-1.48;59.05
67555;HTU21D;54385;53.516;49.456;2023-03-01T10:48:22;-1.71;58.31
67555;HTU21D;54385;53.516;49.456;2023-03-01T10:53:51;-1.44;55.88
67555;HTU21D;54385;53.516;49.456;2023-03-01T10:56:20;-1.44;52.83
67555;HTU21D;54385;53.516;49.456;2023-03-01T11:03:08;-1.24;52.93
67555;HTU21D;54385;53.516;49.456;2023-03-01T11:05:53;-1.03;52.09
67555;HTU21D;54385;53.516;49.456;2023-03-01T11:08:41;-1.34;51.86
67555;HTU21D;54385;53.516;49.456;2023-03-01T11:11:32;-1.35;52.90
67555;HTU21D;54385;53.516;49.456;2023-03-01T11:14:03;-1.21;52.48
67555;HTU21D;54385;53.516;49.456;2023-03-01T11:16:36;-1.09;52.31
67555;HTU21D;54385;53.516;49.456;2023-03-01T11:19:16;-1.21;52.17
67555;HTU21D;54385;53.516;49.456;2023-03-01T11:21:55;-1.40;52.18
67555;HTU21D;54385;53.516;49.456;2023-03-01T11:24:39;-1.23;52.24
67555;HTU21D;54385;53.516;49.456;2023-03-01T11:30:37;-1.09;53.77
67555;HTU21D;54385;53.516;49.456;2023-03-01T11:36:00;-0.97;51.44
67555;HTU21D;54385;53.516;49.456;2023-03-01T11:38:29;-1.08;51.76
67555;HTU21D;54385;53.516;49.456;2023-03-01T11:44:51;-1.28;52.09
67555;HTU21D;54385;53.516;49.456;2023-03-01T11:56:38;0.13;47.76
67555;HTU21D;54385;53.516;49.456;2023-03-01T11:59:33;0.32;46.60
67555;HTU21D;54385;53.516;49.456;2023-03-01T12:08:17;1.25;50.66
67555;HTU21D;54385;53.516;49.456;2023-03-01T12:11:03;0.99;48.98
67555;HTU21D;54385;53.516;49.456;2023-03-01T12:17:25;0.06;52.20
67555;HTU21D;54385;53.516;49.456;2023-03-01T12:20:14;-0.21;53.87
67555;HTU21D;54385;53.516;49.456;2023-03-01T12:23:07;-0.49;53.94
67555;HTU21D;54385;53.516;49.456;2023-03-01T12:26:02;-0.83;52.91
67555;HTU21D;54385;53.516;49.456;2023-03-01T12:29:02;-0.84;53.23
67555;HTU21D;54385;53.516;49.456;2023-03-01T12:37:28;-1.90;62.53
67555;HTU21D;54385;53.516;49.456;2023-03-01T12:40:21;-2.04;62.60
67555;HTU21D;54385;53.516;49.456;2023-03-01T12:48:47;-2.13;59.59
67555;HTU21D;54385;53.516;49.456;2023-03-01T12:51:29;-2.05;59.12
67555;HTU21D;54385;53.516;49.456;2023-03-01T12:53:59;-2.01;57.55
67555;HTU21D;54385;53.516;49.456;2023-03-01T12:56:32;-1.94;57.21
67555;HTU21D;54385;53.516;49.456;2023-03-01T12:59:15;-1.76;55.77
67555;HTU21D;54385;53.516;49.456;2023-03-01T13:02:23;-1.63;55.39
67555;HTU21D;54385;53.516;49.456;2023-03-01T13:05:06;-1.58;53.07
67555;HTU21D;54385;53.516;49.456;2023-03-01T13:13:18;-1.89;53.70
67555;HTU21D;54385;53.516;49.456;2023-03-01T13:15:57;-1.76;52.88
67555;HTU21D;54385;53.516;49.456;2023-03-01T13:20:56;-1.85;52.15
67555;HTU21D;54385;53.516;49.456;2023-03-01T13:23:24;-2.16;52.40
67555;HTU21D;54385;53.516;49.456;2023-03-01T13:29:26;-2.72;53.43
67555;HTU21D;54385;53.516;49.456;2023-03-01T13:34:45;-3.18;54.52
67555;HTU21D;54385;53.516;49.456;2023-03-01T13:37:21;-3.22;54.67
67555;HTU21D;54385;53.516;49.456;2023-03-01T13:39:54;-3.32;54.71
67555;HTU21D;54385;53.516;49.456;2023-03-01T13:42:42;-3.28;54.26
67555;HTU21D;54385;53.516;49.456;2023-03-01T13:45:24;-3.28;54.68
67555;HTU21D;54385;53.516;49.456;2023-03-01T13:47:57;-3.26;53.98
67555;HTU21D;54385;53.516;49.456;2023-03-01T13:50:57;-3.27;53.37
67555;HTU21D;54385;53.516;49.456;2023-03-01T13:53:30;-3.24;53.07
67555;HTU21D;54385;53.516;49.456;2023-03-01T13:56:20;-3.10;53.29
67555;HTU21D;54385;53.516;49.456;2023-03-01T14:01:26;-3.07;53.14
67555;HTU21D;54385;53.516;49.456;2023-03-01T14:04:23;-3.17;53.08
67555;HTU21D;54385;53.516;49.456;2023-03-01T14:07:10;-3.11;53.32
67555;HTU21D;54385;53.516;49.456;2023-03-01T14:10:06;-3.24;53.46
67555;HTU21D;54385;53.516;49.456;2023-03-01T14:18:32;-3.25;53.34
67555;HTU21D;54385;53.516;49.456;2023-03-01T14:21:08;-3.33;54.05
67555;HTU21D;54385;53.516;49.456;2023-03-01T14:23:42;-3.35;54.30
67555;HTU21D;54385;53.516;49.456;2023-03-01T14:26:13;-3.38;54.92
67555;HTU21D;54385;53.516;49.456;2023-03-01T14:28:42;-3.45;55.24
67555;HTU21D;54385;53.516;49.456;2023-03-01T14:34:01;-3.61;54.86
67555;HTU21D;54385;53.516;49.456;2023-03-01T14:36:32;-3.67;55.88
67555;HTU21D;54385;53.516;49.456;2023-03-01T14:39:25;-3.58;56.00
67555;HTU21D;54385;53.516;49.456;2023-03-01T14:41:52;-3.60;56.19
67555;HTU21D;54385;53.516;49.456;2023-03-01T14:44:20;-3.68;57.14
67555;HTU21D;54385;53.516;49.456;2023-03-01T14:46:54;-3.72;57.65
67555;HTU21D;54385;53.516;49.456;2023-03-01T14:49:29;-3.80;57.74
67555;HTU21D;54385;53.516;49.456;2023-03-01T14:52:06;-3.82;57.50
67555;HTU21D;54385;53.516;49.456;2023-03-01T14:54:43;-3.82;58.23
67555;HTU21D;54385;53.516;49.456;2023-03-01T14:57:24;-3.71;58.52
67555;HTU21D;54385;53.516;49.456;2023-03-01T14:59:57;-3.69;57.80
67555;HTU21D;54385;53.516;49.456;2023-03-01T15:02:28;-3.68;57.48
67555;HTU21D;54385;53.516;49.456;2023-03-01T15:04:59;-3.69;57.45
67555;HTU21D;54385;53.516;49.456;2023-03-01T15:07:41;-3.66;57.47
67555;HTU21D;54385;53.516;49.456;2023-03-01T15:13:41;-3.69;57.95
67555;HTU21D;54385;53.516;49.456;2023-03-01T15:19:28;-3.76;57.22
67555;HTU21D;54385;53.516;49.456;2023-03-01T15:21:58;-3.84;57.87
67555;HTU21D;54385;53.516;49.456;2023-03-01T15:24:26;-3.92;58.19
67555;HTU21D;54385;53.516;49.456;2023-03-01T15:27:00;-4.01;58.93
67555;HTU21D;54385;53.516;49.456;2023-03-01T15:29:33;-4.06;59.77
67555;HTU21D;54385;53.516;49.456;2023-03-01T15:32:33;-4.17;60.47
67555;HTU21D;54385;53.516;49.456;2023-03-01T15:38:35;-4.14;61.51
67555;HTU21D;54385;53.516;49.456;2023-03-01T15:41:29;-4.20;62.11
67555;HTU21D;54385;53.516;49.456;2023-03-01T15:44:30;-4.24;62.70
67555;HTU21D;54385;53.516;49.456;2023-03-01T15:47:00;-4.30;62.42
67555;HTU21D;54385;53.516;49.456;2023-03-01T15:49:40;-4.36;63.02
67555;HTU21D;54385;53.516;49.456;2023-03-01T15:52:35;-4.36;63.51
67555;HTU21D;54385;53.516;49.456;2023-03-01T15:55:18;-4.39;63.84
67555;HTU21D;54385;53.516;49.456;2023-03-01T15:57:46;-4.41;64.15
67555;HTU21D;54385;53.516;49.456;2023-03-01T16:00:14;-4.45;64.73
67555;HTU21D;54385;53.516;49.456;2023-03-01T16:02:44;-4.41;65.33
67555;HTU21D;54385;53.516;49.456;2023-03-01T16:05:28;-4.37;65.30
67555;HTU21D;54385;53.516;49.456;2023-03-01T16:07:59;-4.36;65.15
67555;HTU21D;54385;53.516;49.456;2023-03-01T16:10:42;-4.37;65.47
67555;HTU21D;54385;53.516;49.456;2023-03-01T16:13:32;-4.44;66.25
67555;HTU21D;54385;53.516;49.456;2023-03-01T16:15:59;-4.43;66.49
67555;HTU21D;54385;53.516;49.456;2023-03-01T16:18:26;-4.40;65.96
67555;HTU21D;54385;53.516;49.456;2023-03-01T16:20:53;-4.38;65.89
67555;HTU21D;54385;53.516;49.456;2023-03-01T16:23:31;-4.43;65.87
67555;HTU21D;54385;53.516;49.456;2023-03-01T16:26:11;-4.36;65.22
67555;HTU21D;54385;53.516;49.456;2023-03-01T16:28:46;-4.31;65.32
67555;HTU21D;54385;53.516;49.456;2023-03-01T16:31:20;-4.34;65.48
67555;HTU21D;54385;53.516;49.456;2023-03-01T16:33:48;-4.21;65.14
67555;HTU21D;54385;53.516;49.456;2023-03-01T16:36:20;-4.16;64.78
67555;HTU21D;54385;53.516;49.456;2023-03-01T16:38:47;-4.21;64.27
67555;HTU21D;54385;53.516;49.456;2023-03-01T16:41:21;-4.27;63.80
67555;HTU21D;54385;53.516;49.456;2023-03-01T16:44:18;-4.26;64.80
67555;HTU21D;54385;53.516;49.456;2023-03-01T16:46:44;-4.23;65.03
67555;HTU21D;54385;53.516;49.456;2023-03-01T16:49:11;-4.22;64.29
67555;HTU21D;54385;53.516;49.456;2023-03-01T16:51:41;-4.13;64.69
67555;HTU21D;54385;53.516;49.456;2023-03-01T16:54:09;-4.09;63.38
67555;HTU21D;54385;53.516;49.456;2023-03-01T16:56:36;-4.10;63.46
67555;HTU21D;54385;53.516;49.456;2023-03-01T16:59:13;-4.06;63.14
67555;HTU21D;54385;53.516;49.456;2023-03-01T17:01:39;-4.04;62.23
67555;HTU21D;54385;53.516;49.456;2023-03-01T17:04:11;-4.11;61.99
67555;HTU21D;54385;53.516;49.456;2023-03-01T17:06:39;-4.07;62.25
67555;HTU21D;54385;53.516;49.456;2023-03-01T17:09:22;-4.02;61.72
67555;HTU21D;54385;53.516;49.456;2023-03-01T17:11:49;-4.17;62.44
67555;HTU21D;54385;53.516;49.456;2023-03-01T17:14:25;-4.14;62.20
67555;HTU21D;54385;53.516;49.456;2023-03-01T17:16:56;-4.17;62.12
67555;HTU21D;54385;53.516;49.456;2023-03-01T17:19:23;-4.20;61.14
67555;HTU21D;54385;53.516;49.456;2023-03-01T17:21:50;-4.23;61.96
67555;HTU21D;54385;53.516;49.456;2023-03-01T17:24:17;-4.14;61.30
67555;HTU21D;54385;53.516;49.456;2023-03-01T17:26:44;-4.15;60.75
67555;HTU21D;54385;53.516;49.456;2023-03-01T17:29:12;-4.11;60.10
67555;HTU21D;54385;53.516;49.456;2023-03-01T17:31:43;-4.05;60.15